INFORMAÇÕES METEOROLÓGICAS
METAR FOR LEJR
ADDS - METARS form results

(1032 UTC 26 September 2020)
Data provider http://aviationweather.gov/metar/data/
 
METAR text: LEJR 261030Z 02005KT 320V070 CAVOK 23/06 Q1021
Conditions at: LEJR (JEREZ (CIV/MIL) , ES) observed 1030 UTC 26 September 2020
Temperature: 23.0°C (73°F)
Dewpoint: 6.0°C (43°F) [RH = 33%]
Pressure (altimeter): 30.15 inches Hg (1021.0 mb)
Winds: from the NNE (20 degrees) at 6 MPH (5 knots; 2.6 m/s)
Visibility: 6 or more miles (10+ km)
Ceiling: ceiling and visibility are OK
Clouds: unknown
Weather: no significant weather observed at this time

METAR text: LEJR 261000Z 02009KT 340V050 CAVOK 21/06 Q1021
Conditions at: LEJR (JEREZ (CIV/MIL) , ES) observed 1000 UTC 26 September 2020
Temperature: 21.0°C (70°F)
Dewpoint: 6.0°C (43°F) [RH = 38%]
Pressure (altimeter): 30.15 inches Hg (1021.0 mb)
Winds: from the NNE (20 degrees) at 10 MPH (9 knots; 4.6 m/s)
Visibility: 6 or more miles (10+ km)
Ceiling: ceiling and visibility are OK
Clouds: unknown
Weather: no significant weather observed at this time

Forecast for: LEJR (JEREZ (CIV/MIL) , ES)
Text: TAF LEJR 260500Z 2606/2706 36010KT CAVOK TX29/2614Z TN14/2606Z
Forecast period: 0600 to 1600 UTC 26 September 2020
Forecast type: FROM: standard forecast or significant change
Winds: from the N (360 degrees) at 12 MPH (10 knots; 5.1 m/s)
Visibility: 6 or more miles (10+ km)
Ceiling: unknown
Clouds: missing
Weather: no significant weather forecast for this period
Text: BECMG 2616/2618 26008KT
Forecast period: 1600 UTC 26 September 2020 to 0600 UTC 27 September 2020
Forecast type: BECOMING: Conditions expected to become as follows by 1800 UTC 26 September 2020
Winds: from the W (260 degrees) at 9 MPH (8 knots; 4.1 m/s)
Visibility: 6 or more miles (10+ km)
Ceiling: unknown
Clouds: missing
Weather: no significant weather forecast for this period

 MAPA DO AEROPORTO

 INFORMAÇÕES DA PISTA
Pista 02 Tamanho da pista 7546 ft Largura da pista 148 ft
Elevação da pista 68 ft Ranhura da pista 0 ft Proa da pista 21
Pista 20 Tamanho da pista 7546 ft Largura da pista 148 ft
Elevação da pista 93 ft Ranhura da pista 0 ft Proa da pista 201

 FREQUÊNCIAS DO AEROPORTO
Tipo APP Nome APP Frequência 128.5 MHZ
Tipo GND Nome GND Frequência 121.6 MHZ
Tipo TWR Nome TWR Frequência 118.55 MHZ

 AUXÍLIOS DE NAVEGAÇÃO PRÓXIMOS AO AEROPORTO
Tipo NDB Nome Jerez Frequência 433 KHZ
Tipo VOR-DME Nome Jerez Frequência 113000 KHZ



Redes oficiais, softwares e parceiros.

                       

2020 Dream Sky Virtual Airlines


Social-bar